Holly Springs, NC (27540)

5:27 AM EDT on August 28, 2015 (GMT -0400)
Main St Holly Springs | | Change Station
CLOSE
Current Station
Personal Weather Station
Location: Holly Springs, NC
Elevation: 433 ft
Nearby Weather Stations

Elev 433 ft 35.65 °N, 78.83 °W | Updated 6 seconds ago

Clear
Clear
64.8 °F
Feels Like 64.8 °F
N
0.0
Wind Variable Wind from North
Gusts 1.0 mph

Today
High -- | Low -- °F
--% Chance of Precip.
Yesterday
High -- | Low -- °F
Precip. -- in
6:44 AM 7:48 PM
Waxing Gibbous, 97% visible
Pressure 30.13 in
Visibility 8.0 miles
Clouds Few 25000 ft
Dew Point 62 °F
Humidity 89%
Rainfall 0.00 in
Snow Depth Not available.
UV 0 out of 12
Pollen 7.70 out of 12
Air Quality Not available.
Flu Activity Not available.
METAR KRDU 280851Z 33004KT 8SM FEW250 17/16 A3014 RMK AO2 SLP201 T01670156 53000
Pressure 30.13 in
Visibility 8.0 miles
Clouds Few 25000 ft
Dew Point 62 °F
Humidity 89%
Rainfall 0.00 in
Snow Depth Not available.
UV 0 out of 12
Pollen 7.70 out of 12
Air Quality Not available.
Flu Activity Not available.
METAR KRDU 280851Z 33004KT 8SM FEW250 17/16 A3014 RMK AO2 SLP201 T01670156 53000

10-Day Weather Forecast

×

Almanac

Astronomy

Aug. 28, 2015 Rise Set
Actual Time
Civil Twilight
Nautical Twilight
Astronomical Twilight
Moon
Length of Visible Light
Length of Day
Tomorrow will be .
, % of the Moon is Illuminated

Today's Extremes

State Highs State Lows

Community

WunderPhotos

Upload Photos

1,850,352 photos uploaded!

WunderBlogs® & News

Nearby

Air Quality

  Air Quality AQ Index Pollutant
Not available.

Snow Depth

Station Depth Elevation

Earthquake Activity

City Distance Mag. Time & Date
Minimum magnitude displayed is 2.5.

Coastal Water Temperatures

Place Temperature

Stations

Nearby Weather Stations

Station Location Temp. Windchill Dew Point Humidity Wind Precip. Elev Updated Type